createdAt,value
2019-05-15T00:00:50.116Z,7.95
2019-05-15T00:01:50.082Z,7.97
2019-05-15T00:02:50.058Z,8.00
2019-05-15T00:03:50.051Z,7.83
2019-05-15T00:04:50.036Z,7.85
2019-05-15T00:05:50.041Z,7.82
2019-05-15T00:06:50.015Z,7.90
2019-05-15T00:07:50.005Z,7.82
2019-05-15T00:08:49.996Z,7.85
2019-05-15T00:09:49.982Z,7.82
2019-05-15T00:10:49.988Z,7.89
2019-05-15T00:11:49.957Z,7.89
2019-05-15T00:12:49.947Z,7.90
2019-05-15T00:13:49.939Z,7.89
2019-05-15T00:14:49.926Z,7.89
2019-05-15T00:15:49.929Z,7.87
2019-05-15T00:16:49.901Z,7.79
2019-05-15T00:17:49.889Z,7.79
2019-05-15T00:18:49.878Z,7.74
2019-05-15T00:19:49.867Z,7.74
2019-05-15T00:20:49.937Z,7.74
2019-05-15T00:21:49.845Z,7.75
2019-05-15T00:22:49.833Z,7.74
2019-05-15T00:23:49.821Z,7.74
2019-05-15T00:24:49.815Z,7.69
2019-05-15T00:25:49.818Z,7.68
2019-05-15T00:26:49.791Z,7.63
2019-05-15T00:27:49.777Z,7.57
2019-05-15T00:28:49.766Z,7.60
2019-05-15T00:29:49.762Z,7.63
2019-05-15T00:30:49.759Z,7.61
2019-05-15T00:31:49.738Z,7.61
2019-05-15T00:32:49.718Z,7.57
2019-05-15T00:33:49.707Z,7.53
2019-05-15T00:34:49.696Z,7.60
2019-05-15T00:35:49.700Z,7.57
2019-05-15T00:36:49.676Z,7.49
2019-05-15T00:37:49.666Z,7.53
2019-05-15T00:38:49.652Z,7.49
2019-05-15T00:39:49.642Z,7.49
2019-05-15T00:40:49.798Z,7.50
2019-05-15T00:41:54.356Z,7.46
2019-05-15T00:42:50.608Z,7.55
2019-05-15T00:43:49.647Z,7.46
2019-05-15T00:44:49.582Z,7.40
2019-05-15T00:45:49.593Z,7.48
2019-05-15T00:46:49.560Z,7.46
2019-05-15T00:47:49.553Z,7.32
2019-05-15T00:48:49.538Z,7.40
2019-05-15T00:49:49.527Z,7.32
2019-05-15T00:50:49.514Z,7.39
2019-05-15T00:51:49.524Z,7.34
2019-05-15T00:52:49.495Z,7.35
2019-05-15T00:53:49.482Z,7.32
2019-05-15T00:54:49.472Z,7.27
2019-05-15T00:55:49.462Z,7.27
2019-05-15T00:56:49.450Z,7.30
2019-05-15T00:57:49.455Z,7.27
2019-05-15T00:58:49.426Z,7.25
2019-05-15T00:59:49.415Z,7.27
2019-05-15T01:00:49.403Z,7.27
2019-05-15T01:01:49.390Z,7.21
2019-05-15T01:02:49.378Z,7.23
2019-05-15T01:03:49.492Z,7.27
2019-05-15T01:04:49.377Z,7.30
2019-05-15T01:05:49.344Z,7.24
2019-05-15T01:06:52.564Z,7.24
2019-05-15T01:07:49.323Z,7.20
2019-05-15T01:08:49.329Z,7.21
2019-05-15T01:09:49.300Z,7.23
2019-05-15T01:10:49.289Z,7.15
2019-05-15T01:11:49.278Z,7.07
2019-05-15T01:12:49.272Z,7.06
2019-05-15T01:13:49.272Z,7.03
2019-05-15T01:14:49.242Z,7.15
2019-05-15T01:15:49.258Z,7.03
2019-05-15T01:16:49.225Z,7.15
2019-05-15T01:17:49.333Z,7.16
2019-05-15T01:18:49.994Z,7.21
2019-05-15T01:19:49.186Z,7.24
2019-05-15T01:20:49.511Z,7.21
2019-05-15T01:21:49.166Z,7.20
2019-05-15T01:22:49.156Z,7.25
2019-05-15T01:23:49.141Z,7.27
2019-05-15T01:24:49.137Z,7.20
2019-05-15T01:25:49.143Z,7.16
2019-05-15T01:26:49.355Z,7.15
2019-05-15T01:27:49.137Z,7.20
2019-05-15T01:28:49.594Z,7.09
2019-05-15T01:29:49.466Z,7.03
2019-05-15T01:30:49.076Z,7.07
2019-05-15T01:31:49.146Z,7.09
2019-05-15T01:32:49.047Z,6.97
2019-05-15T01:33:49.026Z,7.02
2019-05-15T01:34:49.259Z,7.05
2019-05-15T01:35:49.059Z,7.10
2019-05-15T01:36:49.144Z,7.05
2019-05-15T01:37:48.981Z,7.07
2019-05-15T01:38:48.975Z,7.05
2019-05-15T01:39:48.958Z,7.07
2019-05-15T01:40:48.973Z,7.09
2019-05-15T01:41:49.610Z,7.10
2019-05-15T01:42:49.972Z,7.10
2019-05-15T01:43:49.209Z,7.05
2019-05-15T01:44:48.904Z,7.05
2019-05-15T01:45:48.919Z,7.13
2019-05-15T01:46:49.537Z,7.07
2019-05-15T01:47:48.873Z,7.06
2019-05-15T01:48:49.458Z,6.99
2019-05-15T01:49:49.175Z,6.98
2019-05-15T01:50:49.475Z,7.03
2019-05-15T01:51:48.957Z,6.91
2019-05-15T01:52:48.810Z,6.97
2019-05-15T01:53:48.799Z,6.89
2019-05-15T01:54:49.024Z,6.97
2019-05-15T01:55:48.921Z,6.81
2019-05-15T01:56:49.453Z,6.85
2019-05-15T01:57:48.814Z,6.77
2019-05-15T01:58:48.924Z,6.85
2019-05-15T01:59:57.204Z,6.85
2019-05-15T02:00:49.735Z,6.77
2019-05-15T02:01:48.814Z,6.87
2019-05-15T02:02:48.697Z,6.81
2019-05-15T02:03:49.260Z,6.81
2019-05-15T02:04:48.844Z,6.84
2019-05-15T02:05:48.678Z,6.81
2019-05-15T02:06:48.654Z,6.84
2019-05-15T02:07:48.641Z,6.71
2019-05-15T02:08:49.761Z,6.70
2019-05-15T02:09:49.258Z,6.64
2019-05-15T02:10:49.419Z,6.69
2019-05-15T02:11:49.021Z,6.70
2019-05-15T02:12:48.583Z,6.66
2019-05-15T02:13:48.573Z,6.66
2019-05-15T02:14:48.691Z,6.66
2019-05-15T02:15:48.565Z,6.61
2019-05-15T02:16:48.596Z,6.62
2019-05-15T02:17:48.529Z,6.61
2019-05-15T02:18:48.990Z,6.54
2019-05-15T02:19:48.663Z,6.58
2019-05-15T02:20:49.335Z,6.56
2019-05-15T02:21:48.761Z,6.62
2019-05-15T02:22:48.619Z,6.56
2019-05-15T02:23:48.463Z,6.59
2019-05-15T02:24:48.447Z,6.56
2019-05-15T02:25:48.457Z,6.51
2019-05-15T02:26:48.435Z,6.51
2019-05-15T02:27:48.412Z,6.54
2019-05-15T02:28:48.887Z,6.56
2019-05-15T02:29:49.373Z,6.48
2019-05-15T02:30:50.526Z,6.51
2019-05-15T02:31:50.351Z,6.55
2019-05-15T02:32:50.081Z,6.54
2019-05-15T02:33:49.855Z,6.55
2019-05-15T02:34:50.108Z,6.52
2019-05-15T02:35:50.267Z,6.49
2019-05-15T02:36:49.252Z,6.61
2019-05-15T02:37:48.882Z,6.51
2019-05-15T02:38:48.764Z,6.51
2019-05-15T02:39:49.555Z,6.59
2019-05-15T02:40:49.452Z,6.51
2019-05-15T02:41:49.125Z,6.52
2019-05-15T02:42:49.330Z,6.54
2019-05-15T02:43:50.102Z,6.59
2019-05-15T02:44:50.057Z,6.54
2019-05-15T02:45:50.882Z,6.59
2019-05-15T02:46:49.916Z,6.52
2019-05-15T02:47:49.052Z,6.55
2019-05-15T02:48:48.821Z,6.55
2019-05-15T02:49:48.739Z,6.55
2019-05-15T02:50:50.147Z,6.44
2019-05-15T02:51:49.316Z,6.41
2019-05-15T02:52:49.762Z,6.40
2019-05-15T02:53:50.011Z,6.44
2019-05-15T02:54:49.807Z,6.37
2019-05-15T02:55:49.457Z,6.31
2019-05-15T02:56:49.514Z,6.30
2019-05-15T02:57:49.504Z,6.37
2019-05-15T02:58:49.095Z,6.37
2019-05-15T02:59:49.798Z,6.33
2019-05-15T03:00:53.134Z,6.28
2019-05-15T03:01:49.494Z,6.21
2019-05-15T03:02:49.887Z,6.21
2019-05-15T03:03:49.755Z,6.21
2019-05-15T03:04:48.703Z,6.25
2019-05-15T03:05:49.867Z,6.21
2019-05-15T03:06:49.646Z,6.28
2019-05-15T03:07:49.321Z,6.27
2019-05-15T03:08:49.496Z,6.25
2019-05-15T03:09:49.662Z,6.21
2019-05-15T03:10:49.753Z,6.12
2019-05-15T03:11:49.375Z,6.19
2019-05-15T03:12:49.541Z,6.15
2019-05-15T03:13:50.450Z,6.12
2019-05-15T03:14:49.079Z,6.19
2019-05-15T03:15:48.986Z,6.14
2019-05-15T03:16:49.770Z,6.14
2019-05-15T03:17:49.497Z,6.17
2019-05-15T03:18:50.623Z,6.19
2019-05-15T03:19:49.750Z,6.15
2019-05-15T03:20:50.177Z,6.12
2019-05-15T03:21:49.788Z,6.17
2019-05-15T03:22:49.309Z,6.08
2019-05-15T03:23:50.719Z,6.12
2019-05-15T03:24:50.173Z,6.12
2019-05-15T03:25:49.090Z,6.18
2019-05-15T03:26:49.645Z,6.15
2019-05-15T03:27:49.948Z,6.12
2019-05-15T03:28:49.631Z,6.12
2019-05-15T03:29:49.436Z,6.08
2019-05-15T03:31:18.216Z,6.12
2019-05-15T03:31:59.260Z,6.08
2019-05-15T03:32:55.785Z,6.08
2019-05-15T03:33:53.764Z,6.06
2019-05-15T03:34:55.790Z,5.94
2019-05-15T03:35:53.598Z,5.99
2019-05-15T03:36:52.914Z,5.96
2019-05-15T03:37:49.194Z,5.99
2019-05-15T03:38:49.903Z,5.99
2019-05-15T03:39:51.590Z,5.94
2019-05-15T03:40:49.847Z,5.85
2019-05-15T03:41:49.747Z,5.91
2019-05-15T03:42:49.587Z,5.91
2019-05-15T03:43:49.700Z,5.93
2019-05-15T03:44:50.268Z,5.99
2019-05-15T03:45:49.296Z,5.97
2019-05-15T03:46:49.136Z,5.97
2019-05-15T03:47:49.193Z,6.03
2019-05-15T03:48:48.750Z,6.01
2019-05-15T03:49:49.389Z,5.90
2019-05-15T03:50:48.906Z,5.96
2019-05-15T03:51:50.088Z,6.00
2019-05-15T03:52:49.669Z,6.03
2019-05-15T03:53:49.702Z,6.08
2019-05-15T03:54:49.475Z,5.99
2019-05-15T03:55:48.990Z,6.06
2019-05-15T03:56:49.908Z,5.96
2019-05-15T03:57:49.949Z,6.01
2019-05-15T03:58:49.443Z,5.97
2019-05-15T03:59:48.996Z,6.03
2019-05-15T04:00:49.853Z,5.97
2019-05-15T04:01:49.708Z,6.01
2019-05-15T04:02:48.862Z,5.99
2019-05-15T04:03:49.594Z,6.01
2019-05-15T04:04:50.081Z,5.94
2019-05-15T04:05:49.428Z,6.00
2019-05-15T04:06:49.908Z,6.00
2019-05-15T04:07:49.597Z,5.94
2019-05-15T04:08:49.617Z,5.93
2019-05-15T04:09:49.388Z,6.00
2019-05-15T04:10:48.789Z,5.99
2019-05-15T04:11:49.766Z,5.96
2019-05-15T04:12:49.334Z,5.90
2019-05-15T04:13:49.981Z,5.90
2019-05-15T04:14:50.031Z,5.85
2019-05-15T04:15:50.138Z,5.85
2019-05-15T04:16:49.658Z,5.85
2019-05-15T04:17:49.295Z,5.89
2019-05-15T04:18:49.040Z,5.85
2019-05-15T04:19:49.644Z,5.85
2019-05-15T04:20:49.391Z,5.85
2019-05-15T04:21:49.379Z,5.90
2019-05-15T04:22:49.203Z,5.89
2019-05-15T04:23:49.709Z,5.85
2019-05-15T04:24:49.537Z,5.78
2019-05-15T04:25:49.395Z,5.78
2019-05-15T04:26:48.690Z,5.75
2019-05-15T04:27:49.318Z,5.67
2019-05-15T04:28:49.520Z,5.76
2019-05-15T04:29:49.245Z,5.75
2019-05-15T04:30:49.483Z,5.65
2019-05-15T04:31:56.322Z,5.76
2019-05-15T04:32:48.798Z,5.78
2019-05-15T04:33:49.176Z,5.76
2019-05-15T04:34:48.912Z,5.79
2019-05-15T04:35:49.666Z,5.83
2019-05-15T04:36:49.513Z,5.83
2019-05-15T04:37:49.490Z,5.85
2019-05-15T04:38:49.842Z,5.85
2019-05-15T04:39:49.135Z,5.83
2019-05-15T04:40:49.930Z,5.89
2019-05-15T04:41:49.757Z,5.86
2019-05-15T04:42:49.598Z,5.90
2019-05-15T04:43:49.378Z,5.93
2019-05-15T04:44:49.493Z,5.90
2019-05-15T04:45:49.680Z,5.86
2019-05-15T04:46:49.675Z,5.86
2019-05-15T04:47:49.764Z,5.90
2019-05-15T04:48:49.857Z,5.99
2019-05-15T04:49:50.252Z,6.01
2019-05-15T04:50:49.443Z,5.99
2019-05-15T04:51:49.811Z,5.99
2019-05-15T04:52:49.927Z,6.04
2019-05-15T04:53:49.943Z,6.01
2019-05-15T04:54:49.355Z,6.03
2019-05-15T04:55:49.137Z,6.00
2019-05-15T04:56:48.966Z,6.00
2019-05-15T04:57:49.936Z,6.03
2019-05-15T04:58:50.750Z,5.97
2019-05-15T04:59:49.494Z,5.97
2019-05-15T05:00:49.706Z,5.94
2019-05-15T05:01:46.666Z,5.99
2019-05-15T05:02:49.503Z,5.99
2019-05-15T05:03:49.352Z,6.01
2019-05-15T05:04:49.200Z,6.04
2019-05-15T05:05:49.510Z,6.11
2019-05-15T05:06:49.288Z,6.11
2019-05-15T05:07:49.053Z,6.14
2019-05-15T05:08:49.091Z,6.14
2019-05-15T05:09:48.948Z,6.15
2019-05-15T05:10:48.846Z,6.14
2019-05-15T05:11:48.938Z,6.19
2019-05-15T05:12:50.744Z,6.21
2019-05-15T05:13:48.579Z,6.11
2019-05-15T05:14:48.377Z,6.15
2019-05-15T05:15:49.557Z,6.15
2019-05-15T05:16:48.854Z,6.19
2019-05-15T05:17:48.871Z,6.12
2019-05-15T05:18:48.788Z,6.15
2019-05-15T05:19:51.175Z,6.18
2019-05-15T05:20:48.503Z,6.15
2019-05-15T05:21:47.926Z,6.21
2019-05-15T05:22:48.357Z,6.37
2019-05-15T05:23:48.375Z,6.27
2019-05-15T05:24:47.855Z,6.30
2019-05-15T05:25:48.827Z,6.34
2019-05-15T05:26:48.867Z,6.33
2019-05-15T05:27:48.537Z,6.40
2019-05-15T05:28:48.433Z,6.48
2019-05-15T05:29:48.078Z,6.38
2019-05-15T05:30:48.228Z,6.52
2019-05-15T05:31:49.031Z,6.49
2019-05-15T05:32:48.628Z,6.46
2019-05-15T05:33:48.518Z,6.44
2019-05-15T05:34:48.268Z,6.44
2019-05-15T05:35:48.532Z,6.55
2019-05-15T05:36:47.964Z,6.55
2019-05-15T05:37:48.069Z,6.49
2019-05-15T05:38:46.247Z,6.55
2019-05-15T05:39:48.215Z,6.61
2019-05-15T05:40:49.811Z,6.55
2019-05-15T05:41:48.566Z,6.55
2019-05-15T05:42:48.001Z,6.58
2019-05-15T05:43:48.587Z,6.62
2019-05-15T05:44:46.176Z,6.61
2019-05-15T05:45:46.185Z,6.69
2019-05-15T05:46:46.157Z,6.69
2019-05-15T05:47:48.580Z,6.66
2019-05-15T05:48:46.132Z,6.67
2019-05-15T05:49:46.122Z,6.71
2019-05-15T05:50:49.172Z,6.67
2019-05-15T05:51:48.132Z,6.69
2019-05-15T05:52:46.084Z,6.69
2019-05-15T05:53:48.027Z,6.67
2019-05-15T05:54:46.068Z,6.69
2019-05-15T05:55:46.074Z,6.69
2019-05-15T05:56:48.217Z,6.71
2019-05-15T05:57:46.029Z,6.69
2019-05-15T05:58:46.020Z,6.69
2019-05-15T05:59:46.006Z,6.70
2019-05-15T06:00:48.595Z,6.70
2019-05-15T06:01:48.289Z,6.67
2019-05-15T06:02:48.852Z,6.74
2019-05-15T06:03:49.013Z,6.80
2019-05-15T06:04:47.848Z,6.92
2019-05-15T06:05:45.956Z,6.89
2019-05-15T06:06:45.931Z,6.91
2019-05-15T06:07:45.914Z,6.97
2019-05-15T06:08:48.009Z,7.05
2019-05-15T06:09:45.898Z,6.99
2019-05-15T06:10:45.905Z,6.95
2019-05-15T06:11:45.871Z,6.95
2019-05-15T06:12:45.860Z,7.03
2019-05-15T06:13:45.856Z,7.07
2019-05-15T06:14:45.839Z,7.06
2019-05-15T06:15:45.846Z,7.09
2019-05-15T06:16:47.997Z,7.10
2019-05-15T06:17:47.997Z,7.09
2019-05-15T06:18:45.791Z,7.15
2019-05-15T06:19:48.057Z,7.20
2019-05-15T06:20:45.786Z,7.20
2019-05-15T06:21:54.617Z,7.21
2019-05-15T06:22:47.907Z,7.28
2019-05-15T06:23:48.390Z,7.28
2019-05-15T06:24:48.504Z,7.39
2019-05-15T06:25:48.408Z,7.35
2019-05-15T06:26:47.984Z,7.34
2019-05-15T06:27:48.177Z,7.50
2019-05-15T06:28:45.677Z,7.53
2019-05-15T06:29:45.663Z,7.46
2019-05-15T06:30:45.675Z,7.50
2019-05-15T06:31:45.649Z,7.50
2019-05-15T06:33:01.874Z,7.43
2019-05-15T06:33:48.874Z,7.50
2019-05-15T06:34:48.476Z,7.52
2019-05-15T06:35:45.615Z,7.50
2019-05-15T06:36:45.586Z,7.55
2019-05-15T06:37:45.576Z,7.60
2019-05-15T06:38:48.165Z,7.58
2019-05-15T06:39:45.551Z,7.55
2019-05-15T06:40:45.596Z,7.60
2019-05-15T06:41:48.092Z,7.60
2019-05-15T06:42:48.230Z,7.64
2019-05-15T06:43:48.103Z,7.58
2019-05-15T06:44:45.503Z,7.71
2019-05-15T06:45:45.503Z,7.69
2019-05-15T06:46:45.473Z,7.67
2019-05-15T06:47:45.466Z,7.61
2019-05-15T06:48:45.450Z,7.67
2019-05-15T06:49:45.439Z,7.68
2019-05-15T06:50:45.445Z,7.87
2019-05-15T06:51:45.418Z,7.87
2019-05-15T06:52:45.410Z,7.90
2019-05-15T06:53:45.392Z,7.87
2019-05-15T06:54:45.383Z,7.85
2019-05-15T06:55:45.387Z,7.80
2019-05-15T06:56:45.366Z,8.00
2019-05-15T06:57:45.352Z,8.01
2019-05-15T06:58:45.338Z,8.01
2019-05-15T06:59:45.328Z,8.11
2019-05-15T07:00:45.342Z,8.11
2019-05-15T07:01:47.963Z,8.10
2019-05-15T07:02:45.295Z,8.10
2019-05-15T07:03:45.284Z,8.08
2019-05-15T07:04:45.269Z,8.05
2019-05-15T07:05:45.271Z,8.05
2019-05-15T07:06:45.248Z,8.19
2019-05-15T07:07:45.241Z,8.12
2019-05-15T07:08:45.244Z,8.20
2019-05-15T07:09:45.219Z,8.22
2019-05-15T07:10:45.603Z,8.30
2019-05-15T07:11:45.189Z,8.33
2019-05-15T07:12:48.433Z,8.36
2019-05-15T07:13:48.479Z,8.47
2019-05-15T07:14:45.156Z,8.45
2019-05-15T07:15:45.603Z,8.58
2019-05-15T07:16:45.138Z,8.56
2019-05-15T07:17:45.128Z,8.62
2019-05-15T07:18:48.319Z,8.66
2019-05-15T07:19:45.106Z,8.73
2019-05-15T07:20:45.614Z,8.79
2019-05-15T07:21:45.077Z,8.70
2019-05-15T07:22:45.068Z,8.66
2019-05-15T07:23:45.106Z,8.71
2019-05-15T07:24:45.043Z,8.74
2019-05-15T07:25:45.593Z,8.68
2019-05-15T07:26:45.033Z,8.58
2019-05-15T07:27:45.013Z,8.55
2019-05-15T07:28:44.998Z,8.59
2019-05-15T07:29:45.015Z,8.58
2019-05-15T07:30:44.975Z,8.56
2019-05-15T07:31:47.706Z,8.65
2019-05-15T07:32:44.955Z,8.66
2019-05-15T07:33:48.860Z,8.77
2019-05-15T07:34:44.932Z,8.73
2019-05-15T07:35:45.592Z,8.76
2019-05-15T07:36:44.912Z,8.81
2019-05-15T07:37:44.896Z,8.79
2019-05-15T07:38:44.890Z,8.80
2019-05-15T07:39:44.874Z,8.77
2019-05-15T07:40:44.870Z,8.77
2019-05-15T07:41:44.883Z,8.89
2019-05-15T07:42:44.847Z,8.96
2019-05-15T07:43:44.832Z,8.92
2019-05-15T07:44:44.818Z,8.98
2019-05-15T07:45:44.949Z,8.77
2019-05-15T07:46:44.794Z,8.84
2019-05-15T07:47:45.110Z,8.84
2019-05-15T07:48:44.775Z,8.80
2019-05-15T07:49:44.764Z,8.84
2019-05-15T07:50:44.750Z,8.89
2019-05-15T07:51:44.740Z,8.81
2019-05-15T07:52:48.428Z,8.89
2019-05-15T07:53:44.732Z,8.92
2019-05-15T07:54:45.595Z,8.99
2019-05-15T07:55:44.698Z,8.99
2019-05-15T07:56:44.687Z,8.96
2019-05-15T07:57:44.672Z,8.98
2019-05-15T07:58:44.688Z,8.98
2019-05-15T07:59:44.648Z,8.98
2019-05-15T08:00:44.636Z,9.01
2019-05-15T08:01:44.630Z,9.02
2019-05-15T08:02:44.613Z,9.10
2019-05-15T08:03:58.530Z,9.01
2019-05-15T08:04:48.266Z,9.10
2019-05-15T08:05:57.941Z,9.15
2019-05-15T08:06:45.568Z,9.26
2019-05-15T08:07:44.558Z,9.26
2019-05-15T08:08:44.545Z,9.28
2019-05-15T08:09:44.532Z,9.14
2019-05-15T08:10:44.551Z,9.31
2019-05-15T08:11:48.362Z,9.23
2019-05-15T08:12:44.514Z,9.23
2019-05-15T08:13:45.102Z,9.23
2019-05-15T08:14:47.347Z,9.28
2019-05-15T08:15:45.494Z,9.23
2019-05-15T08:16:44.455Z,9.17
2019-05-15T08:18:00.257Z,9.18
2019-05-15T08:18:45.435Z,9.18
2019-05-15T08:19:44.425Z,9.26
2019-05-15T08:20:44.413Z,9.21
2019-05-15T08:21:44.416Z,9.29
2019-05-15T08:22:45.948Z,9.15
2019-05-15T08:23:48.495Z,9.24
2019-05-15T08:24:44.364Z,9.26
2019-05-15T08:25:44.353Z,9.29
2019-05-15T08:26:45.658Z,9.18
2019-05-15T08:27:44.329Z,9.20
2019-05-15T08:28:44.329Z,9.23
2019-05-15T08:29:44.307Z,9.24
2019-05-15T08:30:44.298Z,9.28
2019-05-15T08:31:44.301Z,9.29
2019-05-15T08:32:44.316Z,9.24
2019-05-15T08:33:44.262Z,9.24
2019-05-15T08:34:44.248Z,9.18
2019-05-15T08:35:47.976Z,9.23
2019-05-15T08:36:45.240Z,9.32
2019-05-15T08:37:44.215Z,9.46
2019-05-15T08:38:44.227Z,9.51
2019-05-15T08:39:44.195Z,9.50
2019-05-15T08:40:44.181Z,9.51
2019-05-15T08:41:44.171Z,9.54
2019-05-15T08:42:44.159Z,9.56
2019-05-15T08:43:44.176Z,9.58
2019-05-15T08:44:44.136Z,9.69
2019-05-15T08:45:44.125Z,9.84
2019-05-15T08:46:44.447Z,9.93
2019-05-15T08:47:44.101Z,9.93
2019-05-15T08:48:44.090Z,10.14
2019-05-15T08:49:44.118Z,10.29
2019-05-15T08:50:44.065Z,10.44
2019-05-15T08:51:44.056Z,10.60
2019-05-15T08:52:44.046Z,10.67
2019-05-15T08:53:44.034Z,10.76
2019-05-15T08:54:44.021Z,10.99
2019-05-15T08:55:44.037Z,10.92
2019-05-15T08:56:44.000Z,10.88
2019-05-15T08:57:43.995Z,10.97
2019-05-15T08:58:43.978Z,11.00
2019-05-15T08:59:43.964Z,10.97
2019-05-15T09:00:44.309Z,11.09
2019-05-15T09:01:43.966Z,11.22
2019-05-15T09:02:43.931Z,11.32
2019-05-15T09:03:43.917Z,11.39
2019-05-15T09:04:43.908Z,11.27
2019-05-15T09:05:43.897Z,11.32
2019-05-15T09:06:45.713Z,11.18
2019-05-15T09:07:43.906Z,11.24
2019-05-15T09:08:43.866Z,11.21
2019-05-15T09:09:45.639Z,11.22
2019-05-15T09:10:43.840Z,11.32
2019-05-15T09:11:43.830Z,11.18
2019-05-15T09:12:43.828Z,11.29
2019-05-15T09:13:44.522Z,11.33
2019-05-15T09:14:43.795Z,11.29
2019-05-15T09:15:43.785Z,11.36
2019-05-15T09:16:43.773Z,11.49
2019-05-15T09:17:43.760Z,11.58
2019-05-15T09:18:43.799Z,11.57
2019-05-15T09:19:43.738Z,11.62
2019-05-15T09:20:43.732Z,11.57
2019-05-15T09:21:43.714Z,11.73
2019-05-15T09:22:43.702Z,11.94
2019-05-15T09:23:43.693Z,12.12
2019-05-15T09:24:43.744Z,12.12
2019-05-15T09:25:43.669Z,12.12
2019-05-15T09:26:43.657Z,12.23
2019-05-15T09:27:43.644Z,12.42
2019-05-15T09:28:43.641Z,12.41
2019-05-15T09:29:43.622Z,12.46
2019-05-15T09:30:43.641Z,12.52
2019-05-15T09:31:43.603Z,12.37
2019-05-15T09:32:43.587Z,12.29
2019-05-15T09:33:43.575Z,12.20
2019-05-15T09:34:50.673Z,12.13
2019-05-15T09:35:44.580Z,11.94
2019-05-15T09:36:45.290Z,11.79
2019-05-15T09:37:43.533Z,11.62
2019-05-15T09:38:43.517Z,11.64
2019-05-15T09:39:43.505Z,11.57
2019-05-15T09:40:46.646Z,11.60
2019-05-15T09:41:44.513Z,11.62
2019-05-15T09:42:43.484Z,11.60
2019-05-15T09:43:43.462Z,11.54
2019-05-15T09:44:43.449Z,11.61
2019-05-15T09:45:43.439Z,11.76
2019-05-15T09:46:43.427Z,11.79
2019-05-15T09:47:43.447Z,12.04
2019-05-15T09:48:43.409Z,12.02
2019-05-15T09:49:43.391Z,11.95
2019-05-15T09:50:43.379Z,12.01
2019-05-15T09:51:43.370Z,12.29
2019-05-15T09:52:43.358Z,12.38
2019-05-15T09:53:44.132Z,12.45
2019-05-15T09:54:43.333Z,12.39
2019-05-15T09:55:43.322Z,12.35
2019-05-15T09:56:43.310Z,12.34
2019-05-15T09:57:43.303Z,12.09
2019-05-15T09:58:43.324Z,12.10
2019-05-15T09:59:43.279Z,11.98
2019-05-15T10:00:43.272Z,11.90
2019-05-15T10:01:43.253Z,12.02
2019-05-15T10:02:43.241Z,12.19
2019-05-15T10:03:44.617Z,12.29
2019-05-15T10:04:43.247Z,12.27
2019-05-15T10:05:43.216Z,12.32
2019-05-15T10:06:43.195Z,12.39
2019-05-15T10:07:43.183Z,12.39
2019-05-15T10:08:43.173Z,12.34
2019-05-15T10:09:43.165Z,12.56
2019-05-15T10:10:43.178Z,12.62
2019-05-15T10:11:43.138Z,13.19
2019-05-15T10:12:43.132Z,13.48
2019-05-15T10:13:43.114Z,13.29
2019-05-15T10:14:43.104Z,12.97
2019-05-15T10:15:43.091Z,12.87
2019-05-15T10:16:43.096Z,12.64
2019-05-15T10:17:43.075Z,12.60
2019-05-15T10:18:43.058Z,12.45
2019-05-15T10:19:43.048Z,12.39
2019-05-15T10:20:43.035Z,12.32
2019-05-15T10:21:43.095Z,12.37
2019-05-15T10:22:43.015Z,12.37
2019-05-15T10:23:43.002Z,12.46
2019-05-15T10:24:42.990Z,12.59
2019-05-15T10:25:42.976Z,12.74
2019-05-15T10:26:42.970Z,12.71
2019-05-15T10:27:42.981Z,12.78
2019-05-15T10:28:42.951Z,12.92
2019-05-15T10:29:42.932Z,12.72
2019-05-15T10:30:42.925Z,12.57
2019-05-15T10:31:42.910Z,12.62
2019-05-15T10:32:42.903Z,12.42
2019-05-15T10:33:42.902Z,12.35
2019-05-15T10:34:42.877Z,12.34
2019-05-15T10:35:42.863Z,12.23
2019-05-15T10:36:42.851Z,12.29
2019-05-15T10:37:42.842Z,12.24
2019-05-15T10:38:42.883Z,12.32
2019-05-15T10:39:42.819Z,12.37
2019-05-15T10:40:58.662Z,12.29
2019-05-15T10:41:43.792Z,12.31
2019-05-15T10:42:42.797Z,12.34
2019-05-15T10:43:45.836Z,12.39
2019-05-15T10:44:42.787Z,12.24
2019-05-15T10:45:43.503Z,12.19
2019-05-15T10:46:42.752Z,12.07
2019-05-15T10:47:42.730Z,12.10
2019-05-15T10:48:42.716Z,12.01
2019-05-15T10:49:42.705Z,11.98
2019-05-15T10:50:42.717Z,12.02
2019-05-15T10:51:42.677Z,11.96
2019-05-15T10:52:42.669Z,12.12
2019-05-15T10:53:42.658Z,12.16
2019-05-15T10:54:42.643Z,12.09
2019-05-15T10:55:42.631Z,12.20
2019-05-15T10:56:42.636Z,12.02
2019-05-15T10:57:44.568Z,12.05
2019-05-15T10:58:42.597Z,11.91
2019-05-15T10:59:42.589Z,12.01
2019-05-15T11:00:42.575Z,11.95
2019-05-15T11:01:42.591Z,11.98
2019-05-15T11:02:42.553Z,11.91
2019-05-15T11:03:42.542Z,12.01
2019-05-15T11:04:42.527Z,12.09
2019-05-15T11:05:45.840Z,12.04
2019-05-15T11:06:42.505Z,12.14
2019-05-15T11:07:42.526Z,12.10
2019-05-15T11:08:42.493Z,12.10
2019-05-15T11:09:42.472Z,12.20
2019-05-15T11:10:42.459Z,12.23
2019-05-15T11:11:42.461Z,12.27
2019-05-15T11:12:42.436Z,12.35
2019-05-15T11:13:42.441Z,12.23
2019-05-15T11:14:42.413Z,12.32
2019-05-15T11:15:42.725Z,12.38
2019-05-15T11:16:42.389Z,12.39
2019-05-15T11:17:42.382Z,12.31
2019-05-15T11:18:42.523Z,12.27
2019-05-15T11:19:42.622Z,12.29
2019-05-15T11:20:42.342Z,12.32
2019-05-15T11:21:43.685Z,12.27
2019-05-15T11:22:43.002Z,12.24
2019-05-15T11:23:42.789Z,12.16
2019-05-15T11:24:42.328Z,12.20
2019-05-15T11:25:42.286Z,12.17
2019-05-15T11:26:42.279Z,12.19
2019-05-15T11:27:42.262Z,12.12
2019-05-15T11:28:42.264Z,12.17
2019-05-15T11:29:42.237Z,12.09
2019-05-15T11:30:42.256Z,12.16
2019-05-15T11:31:42.223Z,12.14
2019-05-15T11:32:42.205Z,12.20
2019-05-15T11:33:42.193Z,12.27
2019-05-15T11:34:42.182Z,12.21
2019-05-15T11:35:56.735Z,12.34
2019-05-15T11:36:43.179Z,12.29
2019-05-15T11:37:45.265Z,12.21
2019-05-15T11:38:42.136Z,12.21
2019-05-15T11:39:45.911Z,12.13
2019-05-15T11:40:42.112Z,12.16
2019-05-15T11:41:42.129Z,12.12
2019-05-15T11:42:42.088Z,12.19
2019-05-15T11:43:42.077Z,12.05
2019-05-15T11:44:42.066Z,12.19
2019-05-15T11:45:42.054Z,12.16
2019-05-15T11:46:42.042Z,12.34
2019-05-15T11:47:42.058Z,12.31
2019-05-15T11:48:42.020Z,12.35
2019-05-15T11:49:42.009Z,12.42
2019-05-15T11:50:41.997Z,12.46
2019-05-15T11:51:41.987Z,12.47
2019-05-15T11:52:41.974Z,12.50
2019-05-15T11:53:41.977Z,12.45
2019-05-15T11:54:41.952Z,12.46
2019-05-15T11:55:41.938Z,12.50
2019-05-15T11:56:41.942Z,12.50
2019-05-15T11:57:46.952Z,12.52
2019-05-15T11:58:42.936Z,12.50
2019-05-15T11:59:45.076Z,12.42
2019-05-15T12:00:41.881Z,12.34
2019-05-15T12:01:41.869Z,12.32
2019-05-15T12:02:41.914Z,12.27
2019-05-15T12:03:41.851Z,12.28
2019-05-15T12:04:41.864Z,12.24
2019-05-15T12:05:41.824Z,12.32
2019-05-15T12:06:41.815Z,12.27
2019-05-15T12:07:41.800Z,12.38
2019-05-15T12:08:41.792Z,12.20
2019-05-15T12:09:41.777Z,12.34
2019-05-15T12:10:41.795Z,12.19
2019-05-15T12:11:41.754Z,12.20
2019-05-15T12:12:41.742Z,12.16
2019-05-15T12:13:41.729Z,12.19
2019-05-15T12:14:42.665Z,12.20
2019-05-15T12:15:41.708Z,12.19
2019-05-15T12:16:41.797Z,12.17
2019-05-15T12:17:41.685Z,12.13
2019-05-15T12:18:41.672Z,12.20
2019-05-15T12:19:41.662Z,12.16
2019-05-15T12:20:41.654Z,12.21
2019-05-15T12:21:41.666Z,12.16
2019-05-15T12:22:42.155Z,12.23
2019-05-15T12:23:41.615Z,12.21
2019-05-15T12:24:41.617Z,12.29
2019-05-15T12:25:41.725Z,12.37
2019-05-15T12:26:41.586Z,12.29
2019-05-15T12:27:41.611Z,12.46
2019-05-15T12:28:41.563Z,12.41
2019-05-15T12:29:41.572Z,12.54
2019-05-15T12:30:41.537Z,12.42
2019-05-15T12:31:41.528Z,12.47
2019-05-15T12:32:41.522Z,12.45
2019-05-15T12:33:41.523Z,12.54
2019-05-15T12:34:41.547Z,12.52
2019-05-15T12:35:41.485Z,12.57
2019-05-15T12:36:51.673Z,12.56
2019-05-15T12:37:42.462Z,12.54
2019-05-15T12:38:41.473Z,12.56
2019-05-15T12:39:41.441Z,12.57
2019-05-15T12:59:44.646Z,12.74
2019-05-15T13:00:41.198Z,12.71
2019-05-15T13:01:41.211Z,12.71
2019-05-15T13:02:41.170Z,12.74
2019-05-15T13:03:41.157Z,12.74
2019-05-15T13:04:41.145Z,12.72
2019-05-15T13:05:41.135Z,12.67
2019-05-15T13:06:53.124Z,12.74
2019-05-15T13:07:42.137Z,12.71
2019-05-15T13:08:41.097Z,12.72
2019-05-15T13:09:41.091Z,12.79
2019-05-15T13:10:41.078Z,12.79
2019-05-15T13:11:41.072Z,12.86
2019-05-15T13:12:55.565Z,12.92
2019-05-15T13:13:42.061Z,12.86
2019-05-15T13:14:41.031Z,12.90
2019-05-15T13:15:42.665Z,12.97
2019-05-15T13:16:41.008Z,12.97
2019-05-15T13:17:41.003Z,13.01
2019-05-15T13:18:41.027Z,12.97
2019-05-15T13:19:40.973Z,13.00
2019-05-15T13:20:40.962Z,12.89
2019-05-15T13:21:42.670Z,12.86
2019-05-15T13:22:40.944Z,12.79
2019-05-15T13:23:40.928Z,12.79
2019-05-15T13:24:40.947Z,12.77
2019-05-15T13:25:40.905Z,12.75
2019-05-15T13:26:40.893Z,12.78
2019-05-15T13:27:40.880Z,12.92
2019-05-15T13:28:40.868Z,12.92